createdAt,value
2019-05-09T00:01:33.880Z,10.40
2019-05-09T00:04:03.373Z,10.50
2019-05-09T00:06:33.959Z,10.50
2019-05-09T00:09:03.759Z,10.40
2019-05-09T00:11:33.568Z,10.30
2019-05-09T00:14:04.441Z,10.30
2019-05-09T00:16:33.533Z,10.40
2019-05-09T00:19:03.239Z,10.40
2019-05-09T00:21:33.681Z,10.40
2019-05-09T00:24:03.525Z,10.50
2019-05-09T00:26:33.892Z,10.30
2019-05-09T00:29:20.683Z,10.30
2019-05-09T00:31:56.552Z,10.30
2019-05-09T00:34:26.668Z,10.30
2019-05-09T00:36:55.150Z,10.20
2019-05-09T00:39:23.690Z,10.20
2019-05-09T00:41:53.954Z,10.20
2019-05-09T00:44:24.113Z,10.30
2019-05-09T00:46:54.279Z,10.20
2019-05-09T00:49:24.496Z,10.20
2019-05-09T00:51:54.080Z,10.30
2019-05-09T00:54:24.053Z,10.10
2019-05-09T00:56:53.944Z,10.00
2019-05-09T00:59:24.069Z,10.10
2019-05-09T01:01:54.282Z,9.70
2019-05-09T01:04:24.125Z,9.80
2019-05-09T01:06:54.000Z,9.80
2019-05-09T01:09:24.181Z,9.80
2019-05-09T01:11:53.477Z,9.80
2019-05-09T01:14:23.403Z,9.70
2019-05-09T01:16:53.454Z,9.70
2019-05-09T01:19:23.325Z,9.60
2019-05-09T01:21:54.056Z,9.50
2019-05-09T01:24:23.268Z,9.50
2019-05-09T01:26:54.117Z,9.60
2019-05-09T01:29:23.103Z,9.50
2019-05-09T01:31:54.121Z,9.60
2019-05-09T01:34:25.458Z,9.60
2019-05-09T01:37:07.481Z,9.50
2019-05-09T01:39:37.634Z,9.50
2019-05-09T01:42:06.257Z,9.60
2019-05-09T01:44:34.964Z,9.60
2019-05-09T01:47:04.005Z,9.70
2019-05-09T01:49:34.481Z,9.70
2019-05-09T01:52:03.544Z,9.70
2019-05-09T01:54:34.088Z,9.60
2019-05-09T01:57:03.322Z,9.50
2019-05-09T01:59:33.915Z,9.60
2019-05-09T02:02:08.122Z,9.70
2019-05-09T02:04:33.568Z,9.60
2019-05-09T02:07:04.043Z,9.50
2019-05-09T02:09:34.270Z,9.70
2019-05-09T02:12:04.023Z,9.60
2019-05-09T02:14:34.727Z,9.50
2019-05-09T02:17:14.061Z,9.50
2019-05-09T02:19:44.462Z,9.50
2019-05-09T02:22:31.179Z,9.50
2019-05-09T02:25:00.047Z,9.50
2019-05-09T02:27:28.894Z,9.50
2019-05-09T02:29:57.779Z,9.50
2019-05-09T02:32:26.289Z,9.50
2019-05-09T02:34:55.041Z,9.50
2019-05-09T02:37:23.584Z,9.50
2019-05-09T02:39:52.171Z,9.50
2019-05-09T02:42:20.642Z,9.40
2019-05-09T02:44:49.449Z,9.40
2019-05-09T02:47:28.530Z,9.30
2019-05-09T02:49:58.739Z,9.40
2019-05-09T02:52:28.700Z,9.40
2019-05-09T02:54:58.419Z,9.60
2019-05-09T02:57:29.354Z,9.50
2019-05-09T03:00:01.905Z,9.30
2019-05-09T03:02:43.835Z,9.40
2019-05-09T03:05:12.513Z,9.50
2019-05-09T03:07:50.242Z,9.40
2019-05-09T03:10:22.599Z,9.40
2019-05-09T03:12:51.242Z,9.40
2019-05-09T03:15:20.528Z,9.50
2019-05-09T03:17:49.887Z,9.50
2019-05-09T03:20:28.939Z,9.60
2019-05-09T03:22:58.347Z,9.60
2019-05-09T03:25:28.883Z,9.60
2019-05-09T03:28:04.469Z,9.40
2019-05-09T03:30:34.615Z,9.40
2019-05-09T03:33:03.189Z,9.50
2019-05-09T03:35:31.743Z,9.50
2019-05-09T03:38:08.144Z,9.50
2019-05-09T03:40:39.312Z,9.50
2019-05-09T03:43:08.175Z,9.50
2019-05-09T03:45:43.942Z,9.50
2019-05-09T03:48:19.590Z,9.50
2019-05-09T03:50:48.719Z,9.40
2019-05-09T03:53:18.457Z,9.20
2019-05-09T03:55:47.724Z,9.20
2019-05-09T03:58:23.633Z,9.30
2019-05-09T04:00:52.097Z,9.20
2019-05-09T04:03:20.807Z,9.30
2019-05-09T04:05:58.606Z,9.20
2019-05-09T04:08:19.943Z,9.20
2019-05-09T04:10:50.445Z,9.20
2019-05-09T04:13:20.668Z,9.20
2019-05-09T04:15:49.493Z,9.10
2019-05-09T04:18:18.017Z,9.00
2019-05-09T04:20:48.242Z,8.90
2019-05-09T04:23:18.662Z,9.00
2019-05-09T04:26:07.539Z,8.90
2019-05-09T04:28:39.627Z,8.90
2019-05-09T04:31:07.371Z,9.10
2019-05-09T04:33:38.280Z,9.00
2019-05-09T04:36:08.335Z,9.00
2019-05-09T04:38:39.937Z,9.10
2019-05-09T04:41:08.290Z,9.20
2019-05-09T04:43:39.681Z,9.00
2019-05-09T04:46:12.840Z,9.00
2019-05-09T04:48:38.635Z,9.10
2019-05-09T04:51:08.072Z,9.10
2019-05-09T04:53:39.312Z,9.20
2019-05-09T04:56:25.127Z,9.20
2019-05-09T04:58:53.657Z,9.30
2019-05-09T05:01:23.778Z,9.30
2019-05-09T05:03:54.250Z,9.20
2019-05-09T05:06:22.824Z,9.20
2019-05-09T05:08:51.396Z,9.30
2019-05-09T05:11:19.856Z,9.30
2019-05-09T05:13:48.337Z,9.20
2019-05-09T05:16:18.456Z,9.20
2019-05-09T05:18:47.810Z,9.30
2019-05-09T05:21:20.041Z,9.30
2019-05-09T05:23:48.264Z,9.50
2019-05-09T05:26:18.555Z,9.60
2019-05-09T05:28:47.533Z,9.60
2019-05-09T05:31:18.067Z,9.60
2019-05-09T05:33:51.133Z,9.60
2019-05-09T05:36:19.806Z,9.70
2019-05-09T05:38:48.320Z,9.70
2019-05-09T05:41:18.348Z,9.70
2019-05-09T05:43:48.014Z,9.60
2019-05-09T05:46:34.559Z,9.70
2019-05-09T05:49:03.059Z,9.80
2019-05-09T05:51:33.167Z,9.90
2019-05-09T05:54:02.493Z,9.80
2019-05-09T05:56:31.011Z,9.80
2019-05-09T05:58:59.562Z,10.00
2019-05-09T06:01:28.134Z,10.00
2019-05-09T06:03:58.615Z,10.00
2019-05-09T06:06:27.912Z,10.10
2019-05-09T06:08:57.955Z,10.00
2019-05-09T06:11:28.119Z,10.10
2019-05-09T06:14:04.041Z,10.20
2019-05-09T06:16:28.093Z,10.30
2019-05-09T06:18:58.582Z,10.40
2019-05-09T06:21:28.262Z,10.50
2019-05-09T06:23:58.437Z,10.60
2019-05-09T06:26:29.202Z,10.60
2019-05-09T06:28:57.727Z,10.70
2019-05-09T06:31:28.314Z,10.90
2019-05-09T06:33:57.806Z,10.80
2019-05-09T06:36:28.330Z,10.90
2019-05-09T06:38:58.782Z,10.90
2019-05-09T06:41:28.541Z,11.10
2019-05-09T06:44:13.632Z,11.20
2019-05-09T06:46:34.974Z,11.40
2019-05-09T06:49:21.547Z,11.40
2019-05-09T06:51:35.397Z,11.70
2019-05-09T06:54:03.909Z,11.90
2019-05-09T06:56:32.430Z,12.10
2019-05-09T06:59:01.055Z,12.40
2019-05-09T07:01:48.164Z,12.30
2019-05-09T07:04:18.445Z,12.40
2019-05-09T07:06:51.450Z,12.50
2019-05-09T07:09:34.022Z,12.70
2019-05-09T07:12:02.758Z,12.70
2019-05-09T07:14:37.554Z,12.80
2019-05-09T07:17:03.346Z,12.60
2019-05-09T07:19:31.942Z,12.70
2019-05-09T07:22:02.195Z,12.60
2019-05-09T07:24:38.205Z,12.60
2019-05-09T07:27:08.459Z,12.70
2019-05-09T07:29:37.655Z,13.20
2019-05-09T07:32:07.989Z,13.40
2019-05-09T07:34:41.092Z,13.30
2019-05-09T07:37:09.682Z,13.60
2019-05-09T07:39:38.211Z,13.90
2019-05-09T07:42:07.706Z,13.50
2019-05-09T07:44:47.988Z,13.60
2019-05-09T07:47:07.504Z,13.20
2019-05-09T07:49:37.729Z,13.20
2019-05-09T07:52:09.916Z,13.40
2019-05-09T07:54:37.705Z,13.00
2019-05-09T07:57:08.349Z,13.00
2019-05-09T07:59:38.751Z,12.90
2019-05-09T08:02:08.771Z,12.90
2019-05-09T08:04:38.653Z,13.00
2019-05-09T08:07:08.422Z,13.10
2019-05-09T08:09:38.792Z,13.30
2019-05-09T08:12:08.767Z,13.40
2019-05-09T08:14:37.858Z,13.30
2019-05-09T08:17:08.546Z,13.40
2019-05-09T08:19:38.049Z,13.20
2019-05-09T08:22:07.946Z,13.20
2019-05-09T08:24:38.055Z,13.30
2019-05-09T08:27:08.538Z,13.30
2019-05-09T08:29:38.734Z,13.30
2019-05-09T08:32:07.524Z,13.40
2019-05-09T08:34:37.784Z,13.50
2019-05-09T08:37:08.094Z,13.60
2019-05-09T08:39:38.265Z,13.50
2019-05-09T08:42:08.600Z,13.50
2019-05-09T08:44:38.298Z,13.80
2019-05-09T08:47:07.936Z,13.80
2019-05-09T08:49:38.190Z,14.30
2019-05-09T08:52:15.521Z,14.20
2019-05-09T08:54:48.408Z,14.10
2019-05-09T08:57:18.269Z,14.30
2019-05-09T08:59:49.758Z,14.30
2019-05-09T09:02:21.929Z,14.30
2019-05-09T09:04:48.791Z,14.30
2019-05-09T09:07:18.976Z,14.30
2019-05-09T09:09:48.286Z,14.50
2019-05-09T09:12:27.140Z,14.50
2019-05-09T09:14:47.788Z,14.90
2019-05-09T09:17:18.725Z,15.30
2019-05-09T09:19:49.560Z,15.40
2019-05-09T09:22:18.698Z,15.30
2019-05-09T09:24:48.179Z,15.20
2019-05-09T09:27:18.213Z,15.30
2019-05-09T09:29:48.335Z,15.30
2019-05-09T09:32:18.908Z,15.50
2019-05-09T09:34:48.536Z,15.60
2019-05-09T09:37:18.471Z,15.50
2019-05-09T09:39:48.786Z,15.40
2019-05-09T09:42:19.939Z,15.30
2019-05-09T09:44:48.215Z,15.30
2019-05-09T09:47:22.805Z,15.40
2019-05-09T09:49:49.121Z,15.20
2019-05-09T09:52:18.808Z,14.80
2019-05-09T09:54:48.223Z,14.90
2019-05-09T09:57:19.076Z,14.80
2019-05-09T09:59:54.668Z,15.00
2019-05-09T10:02:27.665Z,15.30
2019-05-09T10:04:55.353Z,15.30
2019-05-09T10:07:23.864Z,15.30
2019-05-09T10:09:52.359Z,15.50
2019-05-09T10:12:21.565Z,15.50
2019-05-09T10:14:57.875Z,15.50
2019-05-09T10:17:34.390Z,15.70
2019-05-09T10:20:14.387Z,15.60
2019-05-09T10:22:46.395Z,15.80
2019-05-09T10:25:13.371Z,16.20
2019-05-09T10:27:42.271Z,16.20
2019-05-09T10:30:11.256Z,16.20
2019-05-09T10:32:39.990Z,16.30
2019-05-09T10:35:09.277Z,16.10
2019-05-09T10:37:39.292Z,16.10
2019-05-09T10:40:08.151Z,16.20
2019-05-09T10:42:48.328Z,16.40
2019-05-09T10:45:39.983Z,16.50
2019-05-09T10:48:08.166Z,16.90
2019-05-09T10:50:43.128Z,16.90
2019-05-09T10:53:08.179Z,17.20
2019-05-09T10:55:38.550Z,17.00
2019-05-09T10:58:08.067Z,17.10
2019-05-09T11:00:39.378Z,17.00
2019-05-09T11:03:08.796Z,16.80
2019-05-09T11:05:37.555Z,16.80
2019-05-09T11:08:08.131Z,16.80
2019-05-09T11:10:38.747Z,16.50
2019-05-09T11:13:07.587Z,16.30
2019-05-09T11:15:37.619Z,16.10
2019-05-09T11:18:08.108Z,16.20
2019-05-09T11:20:36.987Z,16.40
2019-05-09T11:23:07.860Z,16.40
2019-05-09T11:25:38.073Z,16.10
2019-05-09T11:28:12.718Z,16.30
2019-05-09T11:30:38.715Z,16.20
2019-05-09T11:33:07.805Z,16.00
2019-05-09T11:35:37.997Z,15.90
2019-05-09T11:38:08.524Z,16.10
2019-05-09T11:40:37.891Z,15.80
2019-05-09T11:43:06.581Z,15.80
2019-05-09T11:45:35.147Z,16.00
2019-05-09T11:48:03.702Z,16.00
2019-05-09T11:50:32.254Z,15.80
2019-05-09T11:53:00.762Z,16.00
2019-05-09T11:55:35.732Z,16.00
2019-05-09T11:57:59.585Z,16.40
2019-05-09T12:00:29.400Z,17.10
2019-05-09T12:02:58.368Z,17.10
2019-05-09T12:05:28.769Z,17.30
2019-05-09T12:07:58.140Z,17.70
2019-05-09T12:10:28.534Z,17.60
2019-05-09T12:12:57.797Z,17.50
2019-05-09T12:15:28.841Z,17.20
2019-05-09T12:18:02.202Z,16.80
2019-05-09T12:20:27.705Z,16.70
2019-05-09T12:22:58.443Z,16.50
2019-05-09T12:25:28.633Z,16.60
2019-05-09T12:27:58.412Z,16.80
2019-05-09T12:30:28.479Z,16.70
2019-05-09T12:32:58.937Z,16.60
2019-05-09T12:35:27.500Z,16.40
2019-05-09T12:37:56.032Z,16.40
2019-05-09T12:40:24.560Z,16.50
2019-05-09T12:42:53.620Z,16.40
2019-05-09T12:45:22.194Z,16.40
2019-05-09T12:48:06.265Z,16.40
2019-05-09T12:50:22.262Z,16.40
2019-05-09T12:52:50.771Z,17.00
2019-05-09T12:55:19.353Z,17.40
2019-05-09T12:57:48.963Z,17.10
2019-05-09T13:00:19.594Z,16.60
2019-05-09T13:02:48.063Z,16.60
2019-05-09T13:05:18.194Z,16.70
2019-05-09T13:07:48.515Z,16.80
2019-05-09T13:10:19.366Z,17.10
2019-05-09T13:12:48.969Z,16.80
2019-05-09T13:15:20.956Z,17.00
2019-05-09T13:17:50.982Z,17.00
2019-05-09T13:20:19.590Z,17.20
2019-05-09T13:22:48.090Z,17.30
2019-05-09T13:25:18.762Z,17.40
2019-05-09T13:27:52.502Z,17.90
2019-05-09T13:30:20.887Z,18.10
2019-05-09T13:32:49.522Z,18.10
2019-05-09T13:35:19.839Z,17.80
2019-05-09T13:37:49.007Z,17.40
2019-05-09T13:40:18.909Z,17.30
2019-05-09T13:42:48.976Z,17.30
2019-05-09T13:45:18.625Z,17.20
2019-05-09T13:47:48.473Z,17.10
2019-05-09T13:50:18.622Z,17.10
2019-05-09T13:52:48.528Z,17.20
2019-05-09T13:55:17.835Z,17.10
2019-05-09T13:57:48.746Z,17.10
2019-05-09T14:00:18.816Z,17.00
2019-05-09T14:02:48.828Z,17.10
2019-05-09T14:05:18.947Z,17.30
2019-05-09T14:07:49.189Z,17.40
2019-05-09T14:10:18.541Z,17.60
2019-05-09T14:13:04.364Z,17.90
2019-05-09T14:15:18.469Z,17.20
2019-05-09T14:17:52.618Z,17.30
2019-05-09T14:20:19.208Z,17.30
2019-05-09T14:22:48.997Z,17.40
2019-05-09T14:25:19.608Z,17.20
2019-05-09T14:27:49.775Z,17.00
2019-05-09T14:30:19.749Z,17.00
2019-05-09T14:32:49.725Z,17.30
2019-05-09T14:35:18.672Z,17.60
2019-05-09T14:37:48.751Z,17.90
2019-05-09T14:40:17.737Z,17.60
2019-05-09T14:42:46.325Z,17.40
2019-05-09T14:45:15.151Z,17.20
2019-05-09T14:47:44.702Z,17.10
2019-05-09T14:50:13.220Z,17.20
2019-05-09T14:52:41.739Z,17.10
2019-05-09T14:55:11.177Z,17.10
2019-05-09T14:57:39.766Z,17.00
2019-05-09T15:00:09.222Z,17.00
2019-05-09T15:02:38.913Z,16.70
2019-05-09T15:05:09.536Z,16.70
2019-05-09T15:07:39.117Z,16.60
2019-05-09T15:10:08.624Z,16.80
2019-05-09T15:12:38.979Z,16.80
2019-05-09T15:15:09.450Z,16.90
2019-05-09T15:17:38.140Z,17.20
2019-05-09T15:20:08.753Z,17.30
2019-05-09T15:22:38.699Z,17.40
2019-05-09T15:25:08.804Z,17.30
2019-05-09T15:27:38.505Z,16.90
2019-05-09T15:30:08.931Z,17.00
2019-05-09T15:32:37.841Z,17.10
2019-05-09T15:35:08.944Z,17.30
2019-05-09T15:37:38.623Z,17.00
2019-05-09T15:40:09.007Z,16.90
2019-05-09T15:42:38.924Z,16.70
2019-05-09T15:45:09.648Z,16.80
2019-05-09T15:47:38.880Z,16.90
2019-05-09T15:50:18.643Z,16.80
2019-05-09T15:52:39.631Z,16.80
2019-05-09T15:55:09.431Z,16.90
2019-05-09T15:57:38.365Z,16.90
2019-05-09T16:00:09.916Z,16.80
2019-05-09T16:02:39.331Z,16.90
2019-05-09T16:05:10.502Z,16.90
2019-05-09T16:07:39.519Z,16.80
2019-05-09T16:10:10.996Z,16.80
2019-05-09T16:12:39.681Z,16.70
2019-05-09T16:15:08.674Z,16.60
2019-05-09T16:17:39.264Z,16.60
2019-05-09T16:20:08.407Z,16.70
2019-05-09T16:22:39.420Z,16.70
2019-05-09T16:25:09.095Z,16.50
2019-05-09T16:27:38.027Z,16.60
2019-05-09T16:30:09.563Z,16.50
2019-05-09T16:32:38.057Z,16.50
2019-05-09T16:35:08.026Z,16.50
2019-05-09T16:37:57.362Z,16.30
2019-05-09T16:40:08.643Z,16.30
2019-05-09T16:42:38.162Z,16.30
2019-05-09T16:45:09.571Z,15.50
2019-05-09T16:47:38.087Z,14.50
2019-05-09T16:50:12.240Z,13.90
2019-05-09T16:52:43.562Z,13.60
2019-05-09T16:55:18.484Z,13.80
2019-05-09T16:57:48.088Z,13.20
2019-05-09T17:00:38.148Z,12.90
2019-05-09T17:03:08.115Z,13.20
2019-05-09T17:05:37.488Z,13.20
2019-05-09T17:08:08.189Z,13.10
2019-05-09T17:10:36.599Z,13.40
2019-05-09T17:13:07.658Z,13.60
2019-05-09T17:15:41.810Z,13.80
2019-05-09T17:18:10.371Z,13.90
2019-05-09T17:20:40.605Z,14.00
2019-05-09T17:23:23.302Z,14.20
2019-05-09T17:25:51.917Z,14.20
2019-05-09T17:28:20.570Z,14.40
2019-05-09T17:30:49.502Z,14.30
2019-05-09T17:33:18.425Z,14.20
2019-05-09T17:35:48.255Z,14.30
2019-05-09T17:38:18.035Z,14.30
2019-05-09T17:40:48.424Z,14.10
2019-05-09T17:43:18.327Z,14.10
2019-05-09T17:45:47.814Z,14.10
2019-05-09T17:48:18.276Z,13.90
2019-05-09T17:50:46.732Z,13.70
2019-05-09T17:53:15.275Z,13.80
2019-05-09T17:55:43.857Z,13.80
2019-05-09T17:58:26.039Z,13.90
2019-05-09T18:00:42.548Z,14.00
2019-05-09T18:03:11.103Z,13.90
2019-05-09T18:05:39.948Z,13.90
2019-05-09T18:08:08.510Z,13.80
2019-05-09T18:10:38.033Z,13.80
2019-05-09T18:13:07.908Z,13.70
2019-05-09T18:15:37.877Z,13.30
2019-05-09T18:18:06.648Z,13.20
2019-05-09T18:20:37.716Z,13.20
2019-05-09T18:23:07.958Z,13.00
2019-05-09T18:25:38.004Z,13.00
2019-05-09T18:28:06.954Z,13.00
2019-05-09T18:30:35.479Z,13.00
2019-05-09T18:33:14.417Z,13.20
2019-05-09T18:35:42.937Z,13.10
2019-05-09T18:38:14.580Z,13.30
2019-05-09T18:40:43.393Z,13.40
2019-05-09T18:43:11.944Z,13.40
2019-05-09T18:45:40.483Z,13.40
2019-05-09T18:48:11.357Z,13.20
2019-05-09T18:50:40.084Z,13.20
2019-05-09T18:53:11.590Z,13.00
2019-05-09T18:55:40.548Z,13.20
2019-05-09T18:58:09.522Z,12.90
2019-05-09T19:00:38.262Z,12.90
2019-05-09T19:03:06.841Z,12.90
2019-05-09T19:05:36.575Z,12.90
2019-05-09T19:08:05.139Z,12.80
2019-05-09T19:10:33.775Z,12.60
2019-05-09T19:13:02.367Z,12.60
2019-05-09T19:15:39.747Z,12.60
2019-05-09T19:18:19.485Z,12.50
2019-05-09T19:20:52.677Z,12.60
2019-05-09T19:23:21.837Z,12.60
2019-05-09T19:25:50.355Z,12.70
2019-05-09T19:28:18.893Z,12.90
2019-05-09T19:30:47.368Z,13.00
2019-05-09T19:33:16.656Z,12.80
2019-05-09T19:35:45.204Z,12.70
2019-05-09T19:38:13.732Z,12.80
2019-05-09T19:40:42.317Z,12.80
2019-05-09T19:43:10.836Z,12.90
2019-05-09T19:45:40.154Z,12.80
2019-05-09T19:48:08.668Z,12.80
2019-05-09T19:50:37.204Z,12.80
2019-05-09T19:53:05.863Z,12.70
2019-05-09T19:55:34.395Z,12.80
2019-05-09T19:58:02.994Z,12.70
2019-05-09T20:00:31.461Z,12.80
2019-05-09T20:02:59.926Z,12.60
2019-05-09T20:05:28.459Z,12.80
2019-05-09T20:07:57.486Z,13.00
2019-05-09T20:10:44.517Z,12.80
2019-05-09T20:13:14.846Z,12.70
2019-05-09T20:15:43.452Z,13.00
2019-05-09T20:18:11.997Z,13.10
2019-05-09T20:20:40.620Z,13.10
2019-05-09T20:23:09.376Z,13.00
2019-05-09T20:25:37.886Z,13.10
2019-05-09T20:28:06.617Z,13.10
2019-05-09T20:30:35.303Z,12.90
2019-05-09T20:33:03.854Z,13.00
2019-05-09T20:35:32.381Z,13.10
2019-05-09T20:38:01.117Z,12.90
2019-05-09T20:40:30.093Z,12.60
2019-05-09T20:42:58.853Z,12.70
2019-05-09T20:45:27.501Z,12.80
2019-05-09T20:47:56.243Z,12.60
2019-05-09T20:50:24.967Z,12.70
2019-05-09T20:53:08.420Z,12.60
2019-05-09T20:55:24.117Z,12.60
2019-05-09T20:57:52.817Z,12.70
2019-05-09T21:00:21.595Z,12.50
2019-05-09T21:02:50.315Z,12.70
2019-05-09T21:05:19.002Z,12.80
2019-05-09T21:07:47.682Z,12.70
2019-05-09T21:10:16.638Z,12.40
2019-05-09T21:12:45.365Z,12.50
2019-05-09T21:15:14.201Z,12.40
2019-05-09T21:17:42.929Z,12.50
2019-05-09T21:20:11.592Z,12.50
2019-05-09T21:22:40.263Z,12.50
2019-05-09T21:25:09.357Z,12.50
2019-05-09T21:27:38.118Z,12.50
2019-05-09T21:30:10.198Z,12.40
2019-05-09T21:32:38.974Z,12.30
2019-05-09T21:35:07.886Z,12.20
2019-05-09T21:37:36.415Z,12.20
2019-05-09T21:40:09.292Z,12.10
2019-05-09T21:42:37.838Z,12.10
2019-05-09T21:45:06.665Z,12.20
2019-05-09T21:47:35.212Z,12.20
2019-05-09T21:50:07.615Z,12.20
2019-05-09T21:52:36.160Z,12.30
2019-05-09T21:55:05.177Z,12.20
2019-05-09T21:57:33.671Z,12.10
2019-05-09T22:00:02.305Z,12.10
2019-05-09T22:02:30.922Z,11.90
2019-05-09T22:04:59.455Z,11.90
2019-05-09T22:07:27.932Z,11.80
2019-05-09T22:09:56.466Z,12.10
2019-05-09T22:12:24.993Z,11.90
2019-05-09T22:14:53.650Z,11.80
2019-05-09T22:17:23.773Z,11.90
2019-05-09T22:19:52.265Z,11.90
2019-05-09T22:22:22.122Z,11.80
2019-05-09T22:24:51.512Z,11.90
2019-05-09T22:27:20.006Z,12.00
2019-05-09T22:29:48.490Z,11.70
2019-05-09T22:32:17.076Z,11.90
2019-05-09T22:34:45.579Z,11.80
2019-05-09T22:37:14.175Z,11.80
2019-05-09T22:39:42.638Z,11.70
2019-05-09T22:42:11.150Z,11.80
2019-05-09T22:44:39.642Z,11.70
2019-05-09T22:47:08.169Z,11.60
2019-05-09T22:49:36.760Z,11.70
2019-05-09T22:52:06.058Z,11.60
2019-05-09T22:54:34.547Z,11.70
2019-05-09T22:57:03.054Z,11.60
2019-05-09T22:59:31.618Z,11.60
2019-05-09T23:02:06.291Z,11.70
2019-05-09T23:04:30.490Z,11.60
2019-05-09T23:07:00.579Z,11.60
2019-05-09T23:09:29.145Z,11.50
2019-05-09T23:11:57.712Z,11.60
2019-05-09T23:14:27.216Z,11.50
2019-05-09T23:16:55.712Z,11.50
2019-05-09T23:19:24.172Z,11.40
2019-05-09T23:21:52.680Z,11.40
2019-05-09T23:24:28.401Z,11.30
2019-05-09T23:26:53.134Z,11.50
2019-05-09T23:29:22.242Z,11.40
2019-05-09T23:32:04.099Z,11.50
2019-05-09T23:34:33.316Z,11.50
2019-05-09T23:37:01.776Z,11.50
2019-05-09T23:39:32.061Z,11.50
2019-05-09T23:42:00.515Z,11.40
2019-05-09T23:44:29.025Z,11.30
2019-05-09T23:46:57.486Z,11.30
2019-05-09T23:49:25.975Z,11.20
2019-05-09T23:51:54.526Z,11.20
2019-05-09T23:54:46.990Z,11.20
2019-05-09T23:57:29.877Z,11.20
